Time;durP1;ratioP1;P1;durP2;ratioP2;P2;SDS_P1;SDS_P2;PMS_P1;PMS_P2;Temp;Humidity;BMP_temperature;BMP_pressure;BME280_temperature;BME280_humidity;BME280_pressure;Samples;Min_cycle;Max_cycle;Signal;HPM_P1;HPM_P2
2023/11/17 00:02:19;;;;;;;5.65;4.43;;;2.60;99.90;;;;;;5036089;28;20202;-65
2023/11/17 00:04:47;;;;;;;5.72;4.78;;;2.60;99.90;;;;;;5036568;28;20596;-65
2023/11/17 00:07:14;;;;;;;5.75;4.18;;;2.50;99.90;;;;;;5035279;28;20202;-65
2023/11/17 00:09:41;;;;;;;6.32;4.35;;;2.50;99.90;;;;;;5035781;28;20205;-66
2023/11/17 00:12:08;;;;;;;4.22;3.83;;;2.50;99.90;;;;;;5035327;28;20237;-66
2023/11/17 00:14:36;;;;;;;5.10;4.60;;;2.50;99.90;;;;;;5035636;28;20229;-65
2023/11/17 00:17:04;;;;;;;4.40;3.60;;;2.50;99.90;;;;;;5037113;28;20222;-66
2023/11/17 00:19:30;;;;;;;6.00;4.93;;;2.50;99.90;;;;;;5037870;28;20206;-65
2023/11/17 00:21:58;;;;;;;7.30;5.18;;;2.50;99.90;;;;;;5042576;28;20206;-65
2023/11/17 00:24:26;;;;;;;7.45;5.40;;;2.50;99.90;;;;;;5046283;28;20219;-65
2023/11/17 00:26:53;;;;;;;5.40;3.85;;;2.50;99.90;;;;;;5046427;28;20198;-65
2023/11/17 00:29:20;;;;;;;7.10;4.50;;;2.40;99.90;;;;;;5048514;28;20208;-65
2023/11/17 00:31:46;;;;;;;7.57;5.15;;;2.50;99.90;;;;;;5043899;28;20676;-65
2023/11/17 00:34:13;;;;;;;6.10;4.68;;;2.50;99.90;;;;;;5041685;28;20228;-65
2023/11/17 00:36:44;;;;;;;6.13;4.82;;;2.40;99.90;;;;;;5042551;28;20203;-65
2023/11/17 00:39:14;;;;;;;5.70;4.57;;;2.50;99.90;;;;;;5041967;28;20248;-64
2023/11/17 00:41:42;;;;;;;7.13;5.40;;;2.50;99.90;;;;;;5039542;28;20210;-67
2023/11/17 00:44:09;;;;;;;6.72;4.78;;;2.50;99.90;;;;;;5040868;28;20711;-68
2023/11/17 00:46:37;;;;;;;5.75;4.90;;;2.40;99.90;;;;;;5040515;28;20209;-67
2023/11/17 00:49:04;;;;;;;5.30;4.72;;;2.40;99.90;;;;;;5040562;28;20209;-65
2023/11/17 00:51:30;;;;;;;5.00;4.22;;;2.40;99.90;;;;;;5040745;28;20260;-67
2023/11/17 00:54:00;;;;;;;4.80;3.75;;;2.40;99.90;;;;;;5040030;28;20228;-68
2023/11/17 00:56:28;;;;;;;7.35;4.90;;;2.40;99.90;;;;;;5040877;28;20305;-68
2023/11/17 00:58:55;;;;;;;7.65;4.80;;;2.30;99.90;;;;;;5040526;28;20218;-66
2023/11/17 01:01:22;;;;;;;5.00;4.50;;;2.30;99.90;;;;;;5040977;28;20232;-67
2023/11/17 01:03:49;;;;;;;6.40;5.30;;;2.30;99.90;;;;;;5040094;28;20202;-67
2023/11/17 01:06:16;;;;;;;6.97;4.93;;;2.30;99.90;;;;;;5040786;28;20237;-66
2023/11/17 01:08:43;;;;;;;5.53;4.90;;;2.30;99.90;;;;;;5040033;28;20230;-67
2023/11/17 01:11:12;;;;;;;6.03;5.10;;;2.30;99.90;;;;;;5041088;28;20214;-68
2023/11/17 01:13:40;;;;;;;6.85;4.90;;;2.30;99.90;;;;;;5040299;28;20202;-66
2023/11/17 01:16:08;;;;;;;7.35;5.15;;;2.30;99.90;;;;;;5039024;28;20298;-66
2023/11/17 01:18:35;;;;;;;7.57;5.20;;;2.30;99.90;;;;;;5039554;28;20678;-64
2023/11/17 01:21:02;;;;;;;5.55;4.65;;;2.30;99.90;;;;;;5039583;28;20204;-65
2023/11/17 01:23:28;;;;;;;6.38;5.78;;;2.30;99.90;;;;;;5040804;28;20298;-67
2023/11/17 01:25:56;;;;;;;7.80;6.10;;;2.30;99.90;;;;;;5039011;28;20740;-66
2023/11/17 01:28:23;;;;;;;6.18;5.28;;;2.30;99.90;;;;;;5039374;28;20223;-65
2023/11/17 01:30:51;;;;;;;5.72;5.13;;;2.30;99.90;;;;;;5041417;28;20202;-67
2023/11/17 01:33:18;;;;;;;5.35;4.60;;;2.30;99.90;;;;;;5040370;28;20266;-66
2023/11/17 01:35:45;;;;;;;6.30;5.05;;;2.30;99.90;;;;;;5038285;28;20218;-65
2023/11/17 01:38:12;;;;;;;5.25;4.75;;;2.30;99.90;;;;;;5039961;28;20214;-65
2023/11/17 01:40:39;;;;;;;6.47;5.40;;;2.30;99.90;;;;;;5042586;28;20202;-64
2023/11/17 01:43:06;;;;;;;5.80;4.70;;;2.30;99.90;;;;;;5050515;28;20202;-66
2023/11/17 01:45:33;;;;;;;6.38;4.82;;;2.30;99.90;;;;;;5043198;28;20248;-66
2023/11/17 01:48:02;;;;;;;6.57;5.35;;;2.30;99.90;;;;;;5042725;28;20202;-65
2023/11/17 01:50:29;;;;;;;6.00;5.40;;;2.30;99.90;;;;;;5039731;28;20590;-66
2023/11/17 01:52:56;;;;;;;6.78;5.80;;;2.30;99.90;;;;;;5040784;28;20271;-65
2023/11/17 01:55:24;;;;;;;7.03;5.50;;;2.30;99.90;;;;;;5042267;28;20234;-65
2023/11/17 01:57:51;;;;;;;6.10;5.45;;;2.30;99.90;;;;;;5040890;28;20280;-66
2023/11/17 02:00:19;;;;;;;7.38;6.00;;;2.30;99.90;;;;;;5040299;28;20256;-64
2023/11/17 02:02:48;;;;;;;7.85;6.05;;;2.30;99.90;;;;;;5042500;28;20232;-64
2023/11/17 02:05:20;;;;;;;7.25;5.85;;;2.30;99.90;;;;;;5040494;28;20286;-64
2023/11/17 02:08:05;;;;;;;7.68;6.25;;;2.30;99.90;;;;;;5042012;28;20202;-65
2023/11/17 02:10:39;;;;;;;6.30;5.70;;;2.30;99.90;;;;;;5046973;28;20213;-65
2023/11/17 02:13:11;;;;;;;7.07;6.00;;;2.30;99.90;;;;;;5048478;28;20187;-65
2023/11/17 02:15:41;;;;;;;6.60;5.90;;;2.30;99.90;;;;;;5049780;28;20272;-63
2023/11/17 02:18:10;;;;;;;8.57;6.35;;;2.30;99.90;;;;;;5052642;28;20226;-66
2023/11/17 02:20:41;;;;;;;7.03;6.03;;;2.30;99.90;;;;;;5053638;28;20198;-65
2023/11/17 02:23:13;;;;;;;6.10;5.50;;;2.30;99.90;;;;;;5050100;28;20225;-66
2023/11/17 02:25:50;;;;;;;8.35;6.75;;;2.30;99.90;;;;;;5043016;28;20229;-64
2023/11/17 02:28:30;;;;;;;11.23;6.22;;;2.30;99.90;;;;;;5037367;28;20274;-66
2023/11/17 02:30:59;;;;;;;8.40;6.50;;;2.30;99.90;;;;;;5037327;28;20229;-65
2023/11/17 02:33:30;;;;;;;7.15;6.45;;;2.40;99.90;;;;;;5037618;28;20293;-66
2023/11/17 02:36:03;;;;;;;7.57;6.78;;;2.40;99.90;;;;;;5037048;28;20229;-64
2023/11/17 02:38:31;;;;;;;6.90;6.20;;;2.40;99.90;;;;;;5037765;28;20214;-65
2023/11/17 02:40:57;;;;;;;6.93;6.20;;;2.40;99.90;;;;;;5050262;28;20199;-66
2023/11/17 02:43:29;;;;;;;8.63;6.35;;;2.40;99.90;;;;;;5054567;28;20265;-65
2023/11/17 02:45:56;;;;;;;10.27;7.75;;;2.50;99.90;;;;;;5050552;28;20700;-65
2023/11/17 02:48:24;;;;;;;8.38;6.65;;;2.50;99.90;;;;;;5038689;28;20679;-64
2023/11/17 02:51:03;;;;;;;8.45;7.35;;;2.60;99.90;;;;;;5036249;28;20672;-65
2023/11/17 02:53:32;;;;;;;9.65;7.20;;;2.60;99.90;;;;;;5037233;28;20248;-66
2023/11/17 02:56:00;;;;;;;8.45;7.22;;;2.60;99.90;;;;;;5037018;28;20222;-64
2023/11/17 02:58:32;;;;;;;7.78;6.70;;;2.70;99.90;;;;;;5037026;28;20225;-65
2023/11/17 03:01:01;;;;;;;6.85;6.15;;;2.70;99.90;;;;;;5037039;28;20640;-64
2023/11/17 03:03:29;;;;;;;12.25;7.32;;;2.70;99.90;;;;;;5036258;28;20210;-65
2023/11/17 03:05:58;;;;;;;11.15;7.93;;;2.70;99.90;;;;;;5036433;28;20592;-65
2023/11/17 03:08:25;;;;;;;9.50;6.43;;;2.70;99.90;;;;;;5036355;28;20576;-66
2023/11/17 03:11:00;;;;;;;8.60;7.43;;;2.70;99.90;;;;;;5037200;28;20206;-65
2023/11/17 03:13:27;;;;;;;8.25;6.80;;;2.70;99.90;;;;;;5036713;28;20288;-65
2023/11/17 03:15:54;;;;;;;10.05;7.43;;;2.70;99.90;;;;;;5073395;22;20229;-63
2023/11/17 03:18:26;;;;;;;9.23;7.25;;;2.80;99.90;;;;;;5054240;28;20224;-64
2023/11/17 03:20:54;;;;;;;9.70;7.20;;;2.80;99.90;;;;;;5055190;28;20189;-64
2023/11/17 03:23:21;;;;;;;7.78;6.38;;;2.80;99.90;;;;;;5054470;28;20271;-63
2023/11/17 03:25:48;;;;;;;11.88;8.07;;;2.90;99.90;;;;;;5054161;28;20232;-63
2023/11/17 03:28:13;;;;;;;9.82;7.75;;;2.90;99.90;;;;;;5055250;28;20205;-63
2023/11/17 03:30:41;;;;;;;8.20;7.30;;;3.00;99.90;;;;;;5055822;28;20194;-63
2023/11/17 03:33:08;;;;;;;9.50;6.85;;;3.00;99.90;;;;;;5055239;28;20202;-64
2023/11/17 03:35:40;;;;;;;12.98;7.65;;;3.10;99.90;;;;;;5054884;28;20226;-64
2023/11/17 03:38:13;;;;;;;9.98;7.80;;;3.10;99.90;;;;;;5054573;28;20297;-64
2023/11/17 03:40:43;;;;;;;9.15;6.18;;;3.10;99.90;;;;;;5055243;28;20193;-64
2023/11/17 03:43:13;;;;;;;8.75;7.47;;;3.10;99.90;;;;;;5056582;28;20586;-64
2023/11/17 03:45:40;;;;;;;7.45;6.53;;;3.20;99.90;;;;;;5055698;28;20222;-63
2023/11/17 03:48:07;;;;;;;9.60;7.55;;;3.20;99.90;;;;;;5056095;28;20220;-63
2023/11/17 03:50:35;;;;;;;8.68;6.53;;;3.30;99.90;;;;;;5055759;28;20267;-64
2023/11/17 03:53:02;;;;;;;9.43;7.82;;;3.30;99.90;;;;;;5054342;28;20206;-63
2023/11/17 03:55:30;;;;;;;10.07;7.72;;;3.30;99.90;;;;;;5054598;28;20308;-64
2023/11/17 03:57:56;;;;;;;10.18;8.40;;;3.30;99.90;;;;;;5053551;28;20218;-64
2023/11/17 04:00:23;;;;;;;12.40;8.68;;;3.30;99.90;;;;;;5054143;28;20208;-64
2023/11/17 04:02:52;;;;;;;12.02;8.45;;;3.30;99.90;;;;;;5053136;28;20213;-63
2023/11/17 04:05:19;;;;;;;10.50;8.85;;;3.40;99.90;;;;;;5053202;28;20226;-64
2023/11/17 04:07:48;;;;;;;11.43;8.23;;;3.40;99.90;;;;;;5053354;28;20562;-64
2023/11/17 04:12:35;;;;;;;8.38;7.47;;;3.40;99.90;;;;;;5071221;28;20551;-63
2023/11/17 04:15:02;;;;;;;12.02;8.10;;;3.40;99.90;;;;;;5070583;28;20312;-65
2023/11/17 04:17:30;;;;;;;10.07;7.90;;;3.40;99.90;;;;;;5070399;28;20576;-64
2023/11/17 04:19:57;;;;;;;11.60;8.75;;;3.40;99.90;;;;;;5070590;28;20197;-64
2023/11/17 04:22:23;;;;;;;7.93;7.13;;;3.40;99.90;;;;;;5070689;28;20192;-64
2023/11/17 04:24:50;;;;;;;10.43;8.05;;;3.50;99.90;;;;;;5071356;28;20220;-64
2023/11/17 04:27:19;;;;;;;11.70;8.63;;;3.50;99.90;;;;;;5071935;28;20241;-64
2023/11/17 04:29:47;;;;;;;9.10;8.07;;;3.50;99.90;;;;;;5070994;28;20276;-63
2023/11/17 04:32:13;;;;;;;13.95;9.15;;;3.50;99.90;;;;;;5070699;28;20239;-64
2023/11/17 04:34:40;;;;;;;10.82;9.57;;;3.50;99.90;;;;;;5071003;28;20243;-63
2023/11/17 04:37:08;;;;;;;12.68;9.30;;;3.50;99.90;;;;;;5071094;28;20201;-63
2023/11/17 04:39:35;;;;;;;9.88;8.57;;;3.50;99.90;;;;;;5071307;28;20201;-63
2023/11/17 04:42:03;;;;;;;11.02;9.13;;;3.60;99.90;;;;;;5076709;28;20201;-63
2023/11/17 04:44:30;;;;;;;9.98;8.77;;;3.60;99.90;;;;;;5071796;28;20217;-61
2023/11/17 04:46:59;;;;;;;9.00;8.10;;;3.60;99.90;;;;;;5071276;28;20292;-63
2023/11/17 04:49:27;;;;;;;9.65;8.32;;;3.70;99.90;;;;;;5076209;28;20201;-62
2023/11/17 04:51:53;;;;;;;10.80;9.00;;;3.60;99.90;;;;;;5070663;28;20264;-63
2023/11/17 04:54:20;;;;;;;9.90;8.33;;;3.70;99.90;;;;;;5072831;28;20201;-64
2023/11/17 04:56:46;;;;;;;11.20;8.65;;;3.70;99.90;;;;;;5071486;28;20238;-62
2023/11/17 04:59:13;;;;;;;10.73;8.65;;;3.70;99.90;;;;;;5071300;28;20207;-61
2023/11/17 05:01:40;;;;;;;12.52;8.63;;;3.70;99.90;;;;;;5072898;28;20201;-63
2023/11/17 05:04:08;;;;;;;12.77;9.65;;;3.70;99.90;;;;;;5072061;28;20622;-64
2023/11/17 05:06:36;;;;;;;13.57;8.43;;;3.80;99.90;;;;;;5073149;28;20220;-64
2023/11/17 05:09:09;;;;;;;10.60;8.90;;;3.80;99.90;;;;;;5071333;28;20201;-64
2023/11/17 05:11:37;;;;;;;10.82;8.88;;;3.80;99.90;;;;;;5069973;28;20642;-64
2023/11/17 05:14:04;;;;;;;9.73;8.23;;;3.80;99.90;;;;;;5070629;28;20201;-65
2023/11/17 05:16:32;;;;;;;9.95;8.95;;;3.90;99.90;;;;;;5071144;28;20197;-64
2023/11/17 05:18:59;;;;;;;15.07;9.90;;;3.80;99.90;;;;;;5073900;28;20236;-64
2023/11/17 05:21:27;;;;;;;10.25;8.93;;;3.90;99.90;;;;;;5071936;28;20211;-63
2023/11/17 05:23:54;;;;;;;9.60;8.10;;;3.90;99.90;;;;;;5060860;28;20210;-64
2023/11/17 05:26:21;;;;;;;9.60;8.50;;;3.90;99.90;;;;;;5061441;28;20221;-64
2023/11/17 05:28:48;;;;;;;10.15;8.30;;;3.90;99.90;;;;;;5057330;28;20229;-64
2023/11/17 05:31:17;;;;;;;9.38;8.13;;;3.90;99.90;;;;;;5057930;28;20221;-63
2023/11/17 05:33:43;;;;;;;10.65;8.38;;;3.90;99.90;;;;;;5057859;28;20205;-63
2023/11/17 05:36:10;;;;;;;10.82;8.32;;;3.90;99.90;;;;;;5057601;28;20245;-64
2023/11/17 05:38:38;;;;;;;15.27;8.27;;;3.90;99.90;;;;;;5056811;28;20224;-63
2023/11/17 05:41:06;;;;;;;13.45;8.70;;;3.90;99.90;;;;;;5057693;28;20285;-63
2023/11/17 05:43:32;;;;;;;10.07;8.93;;;3.90;99.90;;;;;;5057341;28;20206;-63
2023/11/17 05:46:00;;;;;;;15.68;9.00;;;3.90;99.90;;;;;;5058019;28;20232;-63
2023/11/17 05:48:27;;;;;;;14.25;10.20;;;3.90;99.90;;;;;;5058495;28;20292;-64
2023/11/17 05:50:54;;;;;;;10.00;8.88;;;3.90;99.90;;;;;;5056835;28;20316;-63
2023/11/17 05:53:21;;;;;;;9.02;7.47;;;3.90;99.90;;;;;;5056229;28;20206;-64
2023/11/17 05:55:49;;;;;;;9.65;8.18;;;3.90;99.90;;;;;;5056082;28;20221;-64
2023/11/17 05:58:17;;;;;;;10.32;8.57;;;3.90;99.90;;;;;;5056031;28;20201;-65
2023/11/17 06:00:43;;;;;;;10.40;8.95;;;3.90;99.90;;;;;;5056185;28;20201;-63
2023/11/17 06:03:12;;;;;;;10.30;8.93;;;3.90;99.90;;;;;;5056108;28;20228;-65
2023/11/17 06:05:39;;;;;;;9.23;8.30;;;3.90;99.90;;;;;;5055765;28;20229;-63
2023/11/17 06:08:06;;;;;;;10.30;9.13;;;3.90;99.90;;;;;;5055584;28;20217;-63
2023/11/17 06:10:32;;;;;;;14.60;9.50;;;3.90;99.90;;;;;;5055740;28;20214;-64
2023/11/17 06:13:01;;;;;;;9.93;8.70;;;3.90;99.90;;;;;;5055715;28;20212;-64
2023/11/17 06:15:30;;;;;;;11.32;8.75;;;3.90;99.90;;;;;;5055469;28;20232;-64
2023/11/17 06:17:57;;;;;;;12.88;9.35;;;3.90;99.90;;;;;;5055781;28;20198;-64
2023/11/17 06:20:25;;;;;;;9.35;8.15;;;3.90;99.90;;;;;;5055802;28;20201;-64
2023/11/17 06:22:52;;;;;;;9.25;8.27;;;3.90;99.90;;;;;;5057015;28;20207;-64
2023/11/17 06:25:19;;;;;;;12.68;9.35;;;3.90;99.90;;;;;;5056255;28;20226;-65
2023/11/17 06:27:46;;;;;;;11.32;8.82;;;3.90;99.90;;;;;;5055852;28;20216;-62
2023/11/17 06:30:15;;;;;;;17.75;9.77;;;3.90;99.90;;;;;;5062511;28;20201;-64
2023/11/17 06:32:42;;;;;;;9.57;7.68;;;4.00;99.90;;;;;;5062943;28;20232;-64
2023/11/17 06:35:10;;;;;;;9.40;7.95;;;4.00;99.90;;;;;;5062848;28;20222;-63
2023/11/17 06:37:38;;;;;;;9.80;8.55;;;4.00;99.90;;;;;;5056828;28;20224;-64
2023/11/17 06:40:09;;;;;;;9.07;7.90;;;4.00;99.90;;;;;;5056793;28;20202;-64
2023/11/17 06:42:38;;;;;;;10.40;8.05;;;4.00;99.90;;;;;;5055288;28;20185;-63
2023/11/17 06:45:05;;;;;;;8.95;7.63;;;4.10;99.90;;;;;;5059208;28;20221;-64
2023/11/17 06:47:33;;;;;;;11.32;7.28;;;4.10;99.90;;;;;;5060770;28;20289;-64
2023/11/17 06:50:00;;;;;;;9.00;6.85;;;4.10;99.90;;;;;;5058122;28;20212;-64
2023/11/17 06:52:27;;;;;;;8.18;7.38;;;4.10;99.90;;;;;;5055603;28;20699;-64
2023/11/17 06:54:54;;;;;;;10.80;6.90;;;4.10;99.90;;;;;;5055045;28;20221;-64
2023/11/17 06:57:21;;;;;;;7.80;6.40;;;4.20;99.90;;;;;;5054997;28;20206;-63
2023/11/17 06:59:48;;;;;;;16.65;8.65;;;4.20;99.90;;;;;;5055108;28;20237;-64
2023/11/17 07:02:15;;;;;;;9.82;7.38;;;4.20;99.90;;;;;;5054689;28;20208;-64
2023/11/17 07:04:43;;;;;;;10.48;7.22;;;4.20;99.90;;;;;;5055331;28;20217;-63
2023/11/17 07:07:10;;;;;;;10.55;7.63;;;4.20;99.90;;;;;;5056593;28;20210;-63
2023/11/17 07:09:37;;;;;;;8.05;6.82;;;4.20;99.90;;;;;;5057882;28;20201;-64
2023/11/17 07:12:06;;;;;;;9.02;7.03;;;4.30;99.90;;;;;;5055389;28;20226;-63
2023/11/17 07:14:33;;;;;;;9.10;6.22;;;4.30;99.90;;;;;;5054660;28;20232;-64
2023/11/17 07:17:03;;;;;;;10.60;7.28;;;4.30;99.90;;;;;;5053972;28;20632;-63
2023/11/17 07:19:32;;;;;;;8.88;7.10;;;4.40;99.90;;;;;;5054591;28;20220;-64
2023/11/17 07:22:01;;;;;;;8.13;6.50;;;4.40;99.90;;;;;;5054431;28;20201;-64
2023/11/17 07:24:29;;;;;;;6.43;5.82;;;4.40;99.90;;;;;;5054049;28;20245;-64
2023/11/17 07:26:55;;;;;;;8.57;6.45;;;4.50;99.90;;;;;;5054209;28;20229;-63
2023/11/17 07:29:23;;;;;;;8.85;6.05;;;4.50;99.90;;;;;;5054040;28;20727;-64
2023/11/17 07:31:50;;;;;;;8.07;6.70;;;4.50;99.90;;;;;;5053777;28;20762;-63
2023/11/17 07:34:18;;;;;;;8.90;5.70;;;4.60;99.90;;;;;;5053785;28;20293;-64
2023/11/17 07:36:47;;;;;;;7.68;6.40;;;4.60;99.90;;;;;;5053708;28;20228;-63
2023/11/17 07:39:18;;;;;;;8.85;7.30;;;4.60;99.90;;;;;;5065185;28;20281;-65
2023/11/17 07:41:46;;;;;;;10.15;6.95;;;4.60;99.90;;;;;;5068182;28;20276;-65
2023/11/17 07:44:12;;;;;;;7.40;6.55;;;4.70;99.90;;;;;;5067232;28;20201;-64
2023/11/17 07:46:39;;;;;;;7.35;5.43;;;4.70;99.90;;;;;;5066096;28;20202;-65
2023/11/17 07:49:06;;;;;;;7.35;6.18;;;4.70;99.90;;;;;;5064195;28;20208;-64
2023/11/17 07:51:34;;;;;;;7.80;5.13;;;4.70;99.90;;;;;;5061270;28;20222;-64
2023/11/17 07:54:00;;;;;;;7.75;5.72;;;4.70;99.90;;;;;;5061615;28;20267;-65
2023/11/17 07:56:29;;;;;;;8.18;5.60;;;4.80;99.90;;;;;;5063753;28;20203;-64
2023/11/17 07:58:59;;;;;;;7.93;5.85;;;4.80;99.90;;;;;;5063161;28;20233;-64
2023/11/17 08:01:25;;;;;;;8.77;6.80;;;4.80;99.90;;;;;;5069092;28;20304;-63
2023/11/17 08:03:53;;;;;;;9.23;5.70;;;4.90;99.90;;;;;;5064336;28;20202;-62
2023/11/17 08:06:20;;;;;;;9.23;5.15;;;4.90;99.90;;;;;;5061867;28;20772;-62
2023/11/17 08:08:47;;;;;;;7.55;5.28;;;4.90;99.90;;;;;;5059786;28;20197;-64
2023/11/17 08:11:15;;;;;;;7.43;5.70;;;4.90;99.90;;;;;;5057435;28;20647;-62
2023/11/17 08:13:43;;;;;;;6.45;5.45;;;4.90;99.90;;;;;;5059231;28;20228;-63
2023/11/17 08:16:10;;;;;;;7.70;5.45;;;5.00;99.90;;;;;;5059979;28;20221;-63
2023/11/17 08:18:37;;;;;;;9.38;5.82;;;5.00;99.90;;;;;;5063938;28;20221;-63
2023/11/17 08:21:06;;;;;;;6.35;4.95;;;5.00;99.90;;;;;;5064601;28;20202;-63
2023/11/17 08:23:33;;;;;;;8.27;5.25;;;5.10;99.90;;;;;;5064079;28;20263;-63
2023/11/17 08:26:00;;;;;;;7.47;5.22;;;5.10;99.90;;;;;;5065754;28;20231;-63
2023/11/17 08:28:28;;;;;;;5.07;4.57;;;5.20;99.90;;;;;;5065678;28;20269;-63
2023/11/17 08:30:57;;;;;;;8.35;5.55;;;5.30;99.90;;;;;;5063107;28;20206;-63
2023/11/17 08:33:24;;;;;;;5.05;4.50;;;5.30;99.90;;;;;;5060689;28;20224;-63
2023/11/17 08:35:51;;;;;;;6.75;4.70;;;5.30;99.90;;;;;;5055698;28;20225;-63
2023/11/17 08:38:20;;;;;;;5.82;4.70;;;5.40;99.90;;;;;;5054732;28;20210;-63
2023/11/17 08:40:47;;;;;;;6.22;5.20;;;5.40;99.90;;;;;;5054627;28;20296;-63
2023/11/17 08:43:18;;;;;;;14.52;5.40;;;5.40;99.90;;;;;;5053869;28;20335;-63
2023/11/17 08:45:47;;;;;;;7.45;4.80;;;5.40;99.90;;;;;;5054646;28;20707;-63
2023/11/17 08:48:15;;;;;;;6.45;5.40;;;5.50;99.90;;;;;;5053511;28;20737;-64
2023/11/17 08:50:42;;;;;;;7.55;4.82;;;5.50;99.90;;;;;;5053371;28;20675;-64
2023/11/17 08:53:10;;;;;;;5.45;4.50;;;5.50;99.90;;;;;;5053738;28;20217;-62
2023/11/17 08:55:37;;;;;;;7.00;4.60;;;5.60;99.90;;;;;;5053649;28;20278;-63
2023/11/17 08:58:05;;;;;;;6.85;5.50;;;5.70;99.90;;;;;;5055237;28;20201;-62
2023/11/17 09:00:31;;;;;;;6.15;4.97;;;5.70;99.90;;;;;;5058836;28;20197;-63
2023/11/17 09:02:58;;;;;;;6.18;5.10;;;5.70;99.90;;;;;;5057765;28;20580;-63
2023/11/17 09:05:27;;;;;;;7.47;5.38;;;5.80;99.90;;;;;;5058380;28;20225;-64
2023/11/17 09:07:55;;;;;;;6.40;4.82;;;5.80;99.90;;;;;;5057853;28;20233;-62
2023/11/17 09:10:26;;;;;;;4.45;3.85;;;5.80;99.90;;;;;;5057742;28;20202;-62
2023/11/17 09:12:53;;;;;;;5.18;4.60;;;5.80;99.90;;;;;;5058337;28;20241;-61
2023/11/17 09:15:23;;;;;;;4.95;3.90;;;5.90;99.90;;;;;;5058034;28;20253;-63
2023/11/17 09:17:51;;;;;;;7.22;4.60;;;5.90;99.90;;;;;;5059666;28;20182;-63
2023/11/17 09:20:20;;;;;;;7.60;4.35;;;5.90;99.90;;;;;;5059263;28;20284;-63
2023/11/17 09:22:49;;;;;;;4.88;4.40;;;5.90;99.90;;;;;;5059881;28;20207;-64
2023/11/17 09:25:17;;;;;;;6.15;4.75;;;5.90;99.90;;;;;;5059399;28;20221;-63
2023/11/17 09:27:45;;;;;;;6.45;4.63;;;5.90;99.90;;;;;;5059428;28;20190;-63
2023/11/17 09:30:14;;;;;;;7.97;4.40;;;6.00;99.90;;;;;;5058963;28;20233;-63
2023/11/17 09:32:43;;;;;;;5.45;4.20;;;6.10;99.90;;;;;;5058848;28;20226;-63
2023/11/17 09:35:13;;;;;;;7.28;4.95;;;6.10;99.90;;;;;;5056651;28;20229;-63
2023/11/17 09:37:49;;;;;;;8.30;4.97;;;6.20;99.90;;;;;;5059920;28;20189;-63
2023/11/17 09:40:20;;;;;;;5.00;4.50;;;6.20;99.90;;;;;;5057294;28;20189;-61
2023/11/17 09:42:50;;;;;;;6.65;4.85;;;6.20;99.90;;;;;;5057554;28;20193;-63
2023/11/17 09:45:20;;;;;;;5.03;4.53;;;6.30;99.90;;;;;;5056886;28;20561;-63
2023/11/17 09:47:51;;;;;;;6.10;4.63;;;6.30;99.90;;;;;;5056582;28;20190;-62
2023/11/17 09:50:20;;;;;;;5.60;4.03;;;6.30;99.90;;;;;;5056347;28;20186;-63
2023/11/17 09:52:49;;;;;;;5.53;4.53;;;6.30;99.90;;;;;;5056149;28;20236;-63
2023/11/17 09:55:17;;;;;;;5.68;4.50;;;6.30;99.90;;;;;;5056963;28;20312;-64
2023/11/17 09:57:46;;;;;;;5.18;4.13;;;6.30;99.90;;;;;;5056538;28;20204;-63
2023/11/17 10:00:20;;;;;;;8.95;3.78;;;6.40;99.90;;;;;;5056729;28;20206;-62
2023/11/17 10:02:51;;;;;;;6.05;3.65;;;6.40;99.90;;;;;;5056328;28;20186;-62
2023/11/17 10:05:19;;;;;;;5.35;4.00;;;6.50;99.90;;;;;;5056219;28;20221;-62
2023/11/17 10:07:49;;;;;;;4.85;3.88;;;6.50;99.90;;;;;;5057068;28;20213;-63
2023/11/17 10:10:19;;;;;;;5.53;3.55;;;6.50;99.90;;;;;;5057706;28;20559;-62
2023/11/17 10:12:48;;;;;;;4.90;4.40;;;6.60;99.90;;;;;;5059573;28;20259;-62
2023/11/17 10:15:16;;;;;;;4.97;3.92;;;6.60;99.90;;;;;;5059577;28;20221;-62
2023/11/17 10:17:47;;;;;;;5.28;4.40;;;6.60;99.90;;;;;;5058818;28;20201;-62
2023/11/17 10:20:17;;;;;;;5.03;4.22;;;6.70;99.90;;;;;;5058234;28;20194;-63
2023/11/17 10:22:50;;;;;;;5.95;4.20;;;6.80;99.90;;;;;;5059284;28;20182;-63
2023/11/17 10:25:19;;;;;;;4.40;3.45;;;6.80;99.90;;;;;;5056213;28;20776;-64
2023/11/17 10:27:49;;;;;;;4.38;3.42;;;6.80;99.90;;;;;;5056461;28;20224;-64
2023/11/17 10:30:17;;;;;;;4.30;3.88;;;6.90;99.90;;;;;;5057105;28;20584;-64
2023/11/17 10:32:50;;;;;;;4.97;4.47;;;6.90;99.90;;;;;;5057643;28;20217;-64
2023/11/17 10:35:24;;;;;;;8.85;3.97;;;7.00;99.90;;;;;;5056389;28;20309;-62
2023/11/17 10:37:54;;;;;;;5.45;3.80;;;7.00;99.90;;;;;;5056755;28;20186;-62
2023/11/17 10:40:25;;;;;;;5.22;3.28;;;7.00;99.90;;;;;;5057198;28;20190;-63
2023/11/17 10:43:04;;;;;;;4.10;3.30;;;7.10;99.90;;;;;;5055979;28;20197;-63
2023/11/17 10:45:32;;;;;;;4.28;3.60;;;7.20;99.90;;;;;;5055756;28;20222;-63
2023/11/17 10:47:59;;;;;;;6.13;3.78;;;7.20;99.90;;;;;;5056529;28;20209;-62
2023/11/17 10:50:28;;;;;;;3.92;2.92;;;7.30;99.90;;;;;;5056502;28;20212;-63
2023/11/17 10:52:57;;;;;;;4.05;3.55;;;7.40;99.90;;;;;;5056497;28;20316;-62
2023/11/17 10:55:35;;;;;;;4.80;3.50;;;7.40;99.90;;;;;;5056854;28;20220;-63
2023/11/17 10:58:07;;;;;;;4.40;3.70;;;7.40;99.90;;;;;;5056213;28;20585;-66
2023/11/17 11:00:37;;;;;;;5.32;3.75;;;7.40;99.90;;;;;;5056281;28;20202;-63
2023/11/17 11:03:06;;;;;;;5.93;3.80;;;7.40;99.90;;;;;;5056364;28;20187;-62
2023/11/17 11:05:35;;;;;;;4.00;3.45;;;7.40;99.90;;;;;;5056067;28;20290;-63
2023/11/17 11:08:17;;;;;;;6.60;3.78;;;7.40;99.90;;;;;;5055912;28;20201;-63
2023/11/17 11:10:54;;;;;;;4.32;2.97;;;7.40;99.90;;;;;;5056207;28;20267;-63
2023/11/17 11:13:28;;;;;;;6.40;3.33;;;7.30;99.90;;;;;;5056348;28;20239;-63
2023/11/17 11:16:05;;;;;;;3.45;3.15;;;7.30;99.90;;;;;;5056017;28;20221;-64
2023/11/17 11:18:35;;;;;;;4.75;3.70;;;7.30;99.90;;;;;;5055871;28;20185;-61
2023/11/17 11:21:04;;;;;;;5.82;3.15;;;7.40;99.90;;;;;;5054615;28;20635;-62
2023/11/17 11:23:33;;;;;;;4.20;3.65;;;7.40;99.90;;;;;;5055526;28;20203;-60
2023/11/17 11:26:03;;;;;;;3.83;3.15;;;7.40;99.90;;;;;;5055290;28;20226;-62
2023/11/17 11:28:31;;;;;;;3.38;3.08;;;7.40;99.90;;;;;;5056044;28;20296;-62
2023/11/17 11:31:00;;;;;;;4.90;3.10;;;7.40;99.90;;;;;;5055862;28;20205;-62
2023/11/17 11:33:30;;;;;;;3.45;3.15;;;7.30;99.90;;;;;;5056374;28;20224;-61
2023/11/17 11:35:57;;;;;;;4.15;3.50;;;7.30;99.90;;;;;;5056444;28;20246;-62
2023/11/17 11:38:24;;;;;;;4.32;3.15;;;7.30;99.90;;;;;;5056996;28;20208;-62
2023/11/17 11:40:53;;;;;;;4.80;3.40;;;7.20;99.90;;;;;;5056294;28;20205;-62
2023/11/17 11:43:20;;;;;;;4.97;3.40;;;7.20;99.90;;;;;;5057176;28;20610;-63
2023/11/17 11:45:47;;;;;;;7.43;3.83;;;7.20;99.90;;;;;;5056104;28;20717;-62
2023/11/17 11:48:20;;;;;;;4.53;3.08;;;7.20;99.90;;;;;;5055191;28;20201;-63
2023/11/17 11:50:49;;;;;;;4.18;3.63;;;7.10;99.90;;;;;;5056307;28;20186;-62
2023/11/17 11:53:24;;;;;;;5.10;3.33;;;7.10;99.90;;;;;;5055672;28;20229;-63
2023/11/17 11:55:54;;;;;;;4.10;3.70;;;7.10;99.90;;;;;;5055360;28;20221;-62
2023/11/17 11:58:24;;;;;;;4.63;3.67;;;7.10;99.90;;;;;;5055739;28;20212;-62
2023/11/17 12:00:54;;;;;;;5.78;3.60;;;7.10;99.90;;;;;;5055067;28;20255;-62
2023/11/17 12:03:20;;;;;;;5.60;3.50;;;7.10;99.90;;;;;;5055623;28;20193;-63
2023/11/17 12:05:48;;;;;;;4.15;3.45;;;7.10;99.90;;;;;;5056037;28;20248;-62
2023/11/17 12:08:27;;;;;;;3.92;3.30;;;7.20;99.90;;;;;;5055903;28;20244;-62
2023/11/17 12:11:01;;;;;;;4.45;2.90;;;7.20;99.90;;;;;;5056402;28;20259;-63
2023/11/17 12:13:48;;;;;;;3.97;2.85;;;7.30;99.90;;;;;;5054899;28;20773;-63
2023/11/17 12:16:18;;;;;;;4.22;3.20;;;7.40;99.90;;;;;;5055168;28;20221;-62
2023/11/17 12:18:48;;;;;;;3.45;3.15;;;7.50;99.90;;;;;;5056676;28;20347;-62
2023/11/17 12:21:20;;;;;;;5.75;3.67;;;7.70;99.90;;;;;;5061449;28;20264;-63
2023/11/17 12:23:54;;;;;;;3.85;3.10;;;7.90;99.90;;;;;;5070095;28;20614;-63
2023/11/17 12:26:25;;;;;;;3.72;3.42;;;8.00;99.90;;;;;;5064084;28;20268;-62
2023/11/17 12:28:53;;;;;;;5.05;3.28;;;8.10;99.90;;;;;;5061343;28;20193;-63
2023/11/17 12:31:21;;;;;;;6.00;3.42;;;8.30;99.90;;;;;;5060760;28;20202;-66
2023/11/17 12:33:50;;;;;;;6.35;2.75;;;8.40;99.90;;;;;;5059100;28;20224;-63
2023/11/17 12:36:18;;;;;;;3.25;2.90;;;8.60;99.90;;;;;;5059874;28;20707;-62
2023/11/17 12:38:50;;;;;;;4.53;3.58;;;8.60;99.90;;;;;;5060004;28;20281;-62
2023/11/17 12:41:17;;;;;;;5.07;2.55;;;8.70;99.90;;;;;;5060559;28;20182;-62
2023/11/17 12:43:49;;;;;;;4.22;2.85;;;8.90;99.90;;;;;;5061670;28;20198;-64
2023/11/17 12:46:16;;;;;;;3.00;2.70;;;8.90;99.90;;;;;;5064374;28;20358;-63
2023/11/17 12:48:44;;;;;;;7.28;3.72;;;8.90;99.90;;;;;;5062313;28;20213;-63
2023/11/17 12:51:11;;;;;;;3.80;2.80;;;9.00;99.90;;;;;;5062601;28;20204;-63
2023/11/17 12:53:45;;;;;;;3.88;3.17;;;9.00;99.90;;;;;;5062298;28;20260;-63
2023/11/17 12:56:13;;;;;;;4.00;2.70;;;8.90;99.90;;;;;;5063968;28;20308;-64
2023/11/17 12:58:40;;;;;;;8.00;3.17;;;8.90;99.90;;;;;;5064800;28;20273;-63
2023/11/17 13:01:14;;;;;;;3.30;2.80;;;8.80;99.90;;;;;;5064466;28;20557;-64
2023/11/17 13:03:41;;;;;;;3.80;2.90;;;8.80;99.90;;;;;;5063529;28;20222;-63
2023/11/17 13:06:09;;;;;;;5.78;3.35;;;8.70;99.90;;;;;;5063733;28;20221;-63